Time;durP1;ratioP1;P1;durP2;ratioP2;P2;SDS_P1;SDS_P2;PMS_P1;PMS_P2;Temp;Humidity;BMP_temperature;BMP_pressure;BME280_temperature;BME280_humidity;BME280_pressure;Samples;Min_cycle;Max_cycle;Signal;HPM_P1;HPM_P2
2021/01/13 03:47:39;;;;;;;5.30;3.95;;;3.50;99.90;;;;;;5039051;23;89033;-84
2021/01/13 03:50:21;;;;;;;6.38;4.13;;;3.50;99.90;;;;;;4935041;28;86830;-86
2021/01/13 03:53:19;;;;;;;6.90;3.80;;;3.50;99.90;;;;;;4936058;28;86133;-84
2021/01/13 03:55:45;;;;;;;7.35;3.75;;;3.40;99.90;;;;;;4933505;28;87155;-85
2021/01/13 03:58:42;;;;;;;4.95;3.58;;;3.50;99.90;;;;;;4936614;28;87361;-85
2021/01/13 04:01:34;;;;;;;4.93;3.70;;;3.50;99.90;;;;;;4916547;28;87886;-86
2021/01/13 04:04:27;;;;;;;5.25;3.50;;;3.50;99.90;;;;;;4936139;28;86729;-86
2021/01/13 04:07:01;;;;;;;4.95;3.67;;;3.50;99.90;;;;;;4934887;28;87418;-85
2021/01/13 04:09:32;;;;;;;5.20;4.20;;;3.50;99.90;;;;;;4934900;28;87876;-87
2021/01/13 04:12:16;;;;;;;;;;;3.50;99.90;;;;;;4941454;28;86858;-85
2021/01/13 04:14:51;;;;;;;5.25;3.92;;;3.50;99.90;;;;;;4942808;28;86932;-84
2021/01/13 04:17:18;;;;;;;5.65;3.67;;;3.50;99.90;;;;;;4932065;28;87674;-86
2021/01/13 04:19:44;;;;;;;8.05;4.55;;;3.60;99.90;;;;;;4930267;28;87356;-86
2021/01/13 04:22:14;;;;;;;8.52;4.93;;;3.60;99.90;;;;;;4927071;28;87182;-86
2021/01/13 04:24:42;;;;;;;7.77;4.47;;;3.50;99.90;;;;;;4906677;28;86330;-85
2021/01/13 04:27:10;;;;;;;7.55;4.60;;;3.60;99.90;;;;;;4931077;28;89859;-82
2021/01/13 04:29:36;;;;;;;7.50;4.93;;;3.60;99.90;;;;;;4938254;28;88500;-84
2021/01/13 04:32:02;;;;;;;10.20;5.32;;;3.60;99.90;;;;;;4939875;28;87919;-86
2021/01/13 04:34:29;;;;;;;10.45;5.65;;;3.70;99.90;;;;;;4939967;28;86925;-88
2021/01/13 04:36:57;;;;;;;9.25;5.45;;;3.60;99.90;;;;;;4931563;28;86989;-85
2021/01/13 04:39:25;;;;;;;8.30;5.20;;;3.60;99.90;;;;;;4917271;28;88777;-84
2021/01/13 04:42:03;;;;;;;7.50;4.30;;;3.60;99.90;;;;;;4936250;28;86215;-85
2021/01/13 04:44:35;;;;;;;8.23;5.20;;;3.60;99.90;;;;;;4934924;28;86147;-86
2021/01/13 04:47:06;;;;;;;7.63;4.60;;;3.50;99.90;;;;;;4914163;28;87718;-86
2021/01/13 04:49:33;;;;;;;6.50;4.80;;;3.50;99.90;;;;;;4916326;28;87739;-86
2021/01/13 04:52:05;;;;;;;8.82;5.47;;;3.50;99.90;;;;;;4913423;28;87896;-87
2021/01/13 04:54:33;;;;;;;6.97;4.82;;;3.50;99.90;;;;;;4912106;28;86906;-87
2021/01/13 04:57:17;;;;;;;7.38;5.03;;;3.50;99.90;;;;;;4907831;28;87680;-87
2021/01/13 04:59:48;;;;;;;10.05;5.15;;;3.50;99.90;;;;;;4914361;28;87129;-88
2021/01/13 05:02:17;;;;;;;;;;;3.40;99.90;;;;;;4906145;28;87038;-88
2021/01/13 05:05:00;;;;;;;7.68;4.68;;;3.40;99.90;;;;;;4913162;28;86959;-86
2021/01/13 05:07:42;;;;;;;8.82;5.25;;;3.40;99.90;;;;;;4913161;28;87028;-86
2021/01/13 05:10:14;;;;;;;10.27;5.82;;;3.40;99.90;;;;;;4916415;28;87416;-85
2021/01/13 05:12:53;;;;;;;9.85;5.53;;;3.40;99.90;;;;;;4912503;28;86694;-87
2021/01/13 05:15:32;;;;;;;13.15;7.03;;;3.40;99.90;;;;;;4915269;28;86801;-86
2021/01/13 05:18:03;;;;;;;12.50;7.38;;;3.50;99.90;;;;;;4911882;28;87714;-85
2021/01/13 05:20:30;;;;;;;11.70;6.90;;;3.50;99.90;;;;;;4910640;28;88382;-86
2021/01/13 05:22:57;;;;;;;11.38;6.72;;;3.50;99.90;;;;;;4895172;28;86747;-86
2021/01/13 05:25:49;;;;;;;11.48;6.95;;;3.60;99.90;;;;;;4916215;28;86865;-86
2021/01/13 05:28:26;;;;;;;13.68;8.13;;;3.60;99.90;;;;;;4890636;28;90282;-87
2021/01/13 05:30:57;;;;;;;12.52;7.78;;;3.60;99.90;;;;;;4894411;28;89381;-86
2021/01/13 05:33:31;;;;;;;14.93;8.25;;;3.60;99.90;;;;;;4906623;28;87056;-87
2021/01/13 05:36:01;;;;;;;13.07;8.02;;;3.60;99.90;;;;;;4911220;28;85853;-84
2021/01/13 05:38:38;;;;;;;12.45;7.72;;;3.60;99.90;;;;;;4908014;28;87747;-86
2021/01/13 05:41:11;;;;;;;13.25;7.63;;;3.60;99.90;;;;;;4897618;28;87919;-87
2021/01/13 05:43:48;;;;;;;12.75;7.60;;;3.60;99.90;;;;;;4912430;28;87829;-86
2021/01/13 05:46:16;;;;;;;14.55;8.65;;;3.60;99.90;;;;;;4918149;28;87158;-87
2021/01/13 05:48:47;;;;;;;13.07;8.02;;;3.60;99.90;;;;;;4947824;28;88792;-87
2021/01/13 05:51:14;;;;;;;11.20;7.60;;;3.60;99.90;;;;;;4931967;28;87782;-87
2021/01/13 05:53:50;;;;;;;12.32;7.60;;;3.60;99.90;;;;;;4922949;28;87086;-85
2021/01/13 05:56:17;;;;;;;13.63;8.10;;;3.60;99.90;;;;;;4951415;28;87061;-85
2021/01/13 05:58:43;;;;;;;12.63;8.02;;;3.60;99.90;;;;;;4947626;28;87638;-85
2021/01/13 06:01:33;;;;;;;13.38;8.00;;;3.70;99.90;;;;;;4949986;28;87213;-86
2021/01/13 06:03:59;;;;;;;14.95;8.02;;;3.70;99.90;;;;;;4945250;28;86896;-85
2021/01/13 06:06:26;;;;;;;15.60;8.27;;;3.60;99.90;;;;;;4954458;28;86592;-85
2021/01/13 06:08:55;;;;;;;12.57;8.02;;;3.60;99.90;;;;;;4941422;28;87791;-86
2021/01/13 06:11:25;;;;;;;12.65;8.10;;;3.60;99.90;;;;;;4954516;28;87456;-86
2021/01/13 06:13:51;;;;;;;14.93;8.35;;;3.60;99.90;;;;;;4953533;28;86924;-84
2021/01/13 06:16:17;;;;;;;13.05;8.43;;;3.60;99.90;;;;;;4943594;28;86268;-84
2021/01/13 06:18:44;;;;;;;12.88;7.78;;;3.60;99.90;;;;;;4952194;28;87221;-85
2021/01/13 06:21:12;;;;;;;20.10;11.38;;;3.70;99.90;;;;;;4933710;28;88793;-85
2021/01/13 06:23:46;;;;;;;19.10;11.98;;;3.60;99.90;;;;;;4952647;28;87308;-85
2021/01/13 06:26:12;;;;;;;21.65;12.35;;;3.60;99.90;;;;;;4942866;28;85550;-85
2021/01/13 06:29:02;;;;;;;28.20;13.98;;;3.60;99.90;;;;;;4936509;28;88659;-86
2021/01/13 06:31:40;;;;;;;19.58;10.38;;;3.60;99.90;;;;;;4952339;28;90053;-86
2021/01/13 06:34:16;;;;;;;17.00;9.38;;;3.50;99.90;;;;;;4952923;28;88179;-86
2021/01/13 06:37:14;;;;;;;14.45;7.72;;;3.40;99.90;;;;;;4944765;28;86973;-86
2021/01/13 06:39:41;;;;;;;11.48;6.75;;;3.30;99.90;;;;;;4936222;28;87933;-83
2021/01/13 06:42:07;;;;;;;13.60;7.45;;;3.20;99.90;;;;;;4949484;28;89294;-83
2021/01/13 06:44:46;;;;;;;11.70;6.65;;;3.10;99.90;;;;;;4966478;28;86857;-86
2021/01/13 06:47:12;;;;;;;10.43;6.30;;;3.10;99.90;;;;;;4966469;28;86276;-84
2021/01/13 06:49:39;;;;;;;12.23;6.85;;;2.90;99.90;;;;;;4960017;28;86696;-85
2021/01/13 06:52:07;;;;;;;12.20;6.30;;;2.90;99.90;;;;;;4956192;28;87159;-87
2021/01/13 06:54:47;;;;;;;9.70;6.60;;;2.90;99.90;;;;;;4951772;28;86929;-84
2021/01/13 06:57:14;;;;;;;11.80;6.45;;;2.90;99.90;;;;;;4963824;28;86093;-84
2021/01/13 06:59:40;;;;;;;11.65;6.90;;;3.00;99.90;;;;;;4951002;28;88088;-85
2021/01/13 07:02:07;;;;;;;10.90;7.20;;;3.00;99.90;;;;;;4960649;28;87887;-88
2021/01/13 07:04:45;;;;;;;13.40;6.88;;;2.90;99.90;;;;;;4940357;28;86777;-87
2021/01/13 07:07:14;;;;;;;12.10;6.60;;;2.90;99.90;;;;;;4937973;28;86951;-88
2021/01/13 07:09:45;;;;;;;12.63;7.15;;;3.00;99.90;;;;;;4951815;28;86806;-88
2021/01/13 07:12:17;;;;;;;12.30;6.72;;;2.90;99.90;;;;;;4951924;28;87794;-87
2021/01/13 07:14:49;;;;;;;15.90;7.28;;;2.90;99.90;;;;;;4942120;28;86857;-87
2021/01/13 07:17:25;;;;;;;15.23;7.90;;;2.90;99.90;;;;;;4954890;28;85830;-85
2021/01/13 07:19:53;;;;;;;15.68;6.95;;;2.80;99.90;;;;;;4949425;28;87687;-86
2021/01/13 07:22:28;;;;;;;14.00;8.20;;;2.80;99.90;;;;;;4938866;28;88066;-87
2021/01/13 07:24:55;;;;;;;16.65;8.18;;;2.80;99.90;;;;;;4952926;28;87176;-88
2021/01/13 07:27:21;;;;;;;19.20;8.48;;;2.70;99.90;;;;;;4937152;28;86891;-86
2021/01/13 07:29:48;;;;;;;17.80;10.05;;;2.70;99.90;;;;;;4954176;28;87855;-86
2021/01/13 07:32:18;;;;;;;16.00;7.13;;;2.70;99.90;;;;;;4953769;28;87026;-87
2021/01/13 07:34:44;;;;;;;11.77;6.15;;;2.70;99.90;;;;;;4955306;28;87002;-87
2021/01/13 07:37:11;;;;;;;14.98;9.05;;;2.70;99.90;;;;;;4954275;28;86857;-85
2021/01/13 07:39:43;;;;;;;19.73;9.05;;;2.60;99.90;;;;;;4953877;28;87009;-88
2021/01/13 07:42:43;;;;;;;11.63;6.82;;;2.70;99.90;;;;;;4954927;28;87048;-87
2021/01/13 07:45:18;;;;;;;13.73;7.15;;;2.50;99.90;;;;;;4925423;28;87230;-87
2021/01/13 07:47:53;;;;;;;13.15;6.20;;;2.60;99.90;;;;;;4954279;28;86888;-86
2021/01/13 07:50:20;;;;;;;12.63;6.63;;;2.60;99.90;;;;;;4949872;28;88692;-87
2021/01/13 07:52:47;;;;;;;11.38;6.60;;;2.60;99.90;;;;;;4952725;28;87700;-87
2021/01/13 07:55:17;;;;;;;13.75;6.93;;;2.50;99.90;;;;;;4938869;28;87033;-86
2021/01/13 07:57:53;;;;;;;12.75;6.65;;;2.50;99.90;;;;;;4954196;28;86849;-87
2021/01/13 08:00:38;;;;;;;11.48;6.88;;;2.50;99.90;;;;;;4955607;28;86824;-87
2021/01/13 08:03:29;;;;;;;11.45;7.15;;;2.40;99.90;;;;;;4953686;28;87271;-87
2021/01/13 08:06:07;;;;;;;17.38;9.10;;;2.30;99.90;;;;;;4935968;28;86420;-86
2021/01/13 08:08:57;;;;;;;14.90;8.15;;;2.30;99.90;;;;;;4954429;28;86187;-87
2021/01/13 08:11:53;;;;;;;18.77;9.10;;;2.30;99.90;;;;;;4956147;28;87391;-86
2021/01/13 08:14:56;;;;;;;15.18;8.07;;;2.30;99.90;;;;;;4956250;28;87571;-86
2021/01/13 08:17:50;;;;;;;12.10;7.35;;;2.40;99.90;;;;;;4948321;28;88190;-87
2021/01/13 08:20:55;;;;;;;16.13;7.35;;;2.20;99.90;;;;;;4954117;28;86931;-87
2021/01/13 08:23:26;;;;;;;14.05;7.50;;;2.30;99.90;;;;;;4956017;28;86755;-86
2021/01/13 08:26:05;;;;;;;12.13;6.68;;;2.40;99.90;;;;;;4956439;28;87388;-86
2021/01/13 08:28:40;;;;;;;12.55;7.05;;;2.50;99.90;;;;;;4955708;28;86088;-86
2021/01/13 08:31:07;;;;;;;11.90;8.60;;;2.20;99.90;;;;;;4957822;28;87049;-88
2021/01/13 08:33:40;;;;;;;9.68;6.68;;;2.20;99.90;;;;;;4937543;28;87567;-87
2021/01/13 08:36:12;;;;;;;12.50;6.63;;;2.20;99.90;;;;;;4936205;28;87838;-88
2021/01/13 08:38:58;;;;;;;13.30;6.95;;;2.30;99.90;;;;;;4950061;28;86953;-86
2021/01/13 08:41:24;;;;;;;12.35;7.43;;;2.30;99.90;;;;;;4941589;28;87155;-87
2021/01/13 08:44:18;;;;;;;14.43;8.02;;;3.00;99.90;;;;;;4945690;28;88484;-86
2021/01/13 08:47:00;;;;;;;10.32;6.68;;;2.70;99.90;;;;;;4937742;28;88430;-86
2021/01/13 08:49:30;;;;;;;10.93;6.43;;;2.80;99.90;;;;;;4944098;28;86230;-86
2021/01/13 08:52:10;;;;;;;11.57;6.87;;;2.80;99.90;;;;;;4930614;28;87722;-84
2021/01/13 08:54:37;;;;;;;13.55;6.97;;;2.90;99.90;;;;;;4947727;28;86596;-85
2021/01/13 08:57:03;;;;;;;12.48;6.30;;;2.90;99.90;;;;;;4940308;28;86727;-85
2021/01/13 08:59:39;;;;;;;10.35;6.10;;;3.00;99.90;;;;;;4946383;28;86924;-83
2021/01/13 09:02:08;;;;;;;10.23;5.85;;;3.20;99.90;;;;;;4931541;28;86168;-85
2021/01/13 09:04:57;;;;;;;16.58;8.50;;;3.30;99.90;;;;;;4931999;28;90718;-86
2021/01/13 09:07:28;;;;;;;10.27;7.30;;;3.70;99.90;;;;;;4947195;28;86757;-87
2021/01/13 09:10:11;;;;;;;13.27;6.72;;;3.50;99.90;;;;;;4945237;28;87372;-87
2021/01/13 09:12:47;;;;;;;15.18;6.57;;;3.70;99.90;;;;;;4919301;28;87178;-87
2021/01/13 09:15:18;;;;;;;12.38;6.60;;;3.80;99.90;;;;;;4943697;28;86736;-86
2021/01/13 09:17:52;;;;;;;10.32;5.93;;;3.70;99.90;;;;;;4949082;28;87508;-85
2021/01/13 09:20:30;;;;;;;12.00;6.78;;;3.70;99.90;;;;;;4942574;28;86921;-85
2021/01/13 09:23:04;;;;;;;13.55;6.13;;;3.70;99.90;;;;;;4947838;28;86901;-85
2021/01/13 09:25:33;;;;;;;13.50;6.25;;;3.80;99.90;;;;;;4955653;28;86634;-87
2021/01/13 09:28:15;;;;;;;7.35;5.70;;;3.90;99.90;;;;;;4938873;28;87249;-86
2021/01/13 09:30:42;;;;;;;15.55;6.65;;;4.00;99.90;;;;;;4938114;28;86654;-86
2021/01/13 09:33:16;;;;;;;12.15;5.65;;;4.10;99.90;;;;;;4948758;28;87094;-89
2021/01/13 09:35:49;;;;;;;8.52;4.97;;;4.10;99.90;;;;;;4934938;28;89121;-88
2021/01/13 09:38:25;;;;;;;12.52;6.00;;;4.10;99.90;;;;;;4922590;28;90936;-87
2021/01/13 09:40:57;;;;;;;9.57;4.80;;;3.90;99.90;;;;;;4913010;28;86609;-84
2021/01/13 09:43:31;;;;;;;9.80;5.72;;;3.90;99.90;;;;;;4933725;28;86902;-87
2021/01/13 09:46:00;;;;;;;14.98;6.30;;;3.80;99.90;;;;;;4955319;28;88762;-87
2021/01/13 09:48:28;;;;;;;11.30;5.95;;;3.80;99.90;;;;;;4944275;28;87871;-89
2021/01/13 09:51:12;;;;;;;12.38;6.47;;;3.80;99.90;;;;;;4927740;28;86959;-89
2021/01/13 09:53:50;;;;;;;10.10;6.13;;;3.80;99.90;;;;;;4932447;28;86112;-87
2021/01/13 09:56:16;;;;;;;11.85;6.43;;;3.90;99.90;;;;;;4949427;28;87636;-88
2021/01/13 09:58:47;;;;;;;8.80;6.55;;;3.90;99.90;;;;;;4937413;28;87112;-88
2021/01/13 10:01:14;;;;;;;;;;;3.80;99.90;;;;;;4951798;28;87866;-88
2021/01/13 10:03:47;;;;;;;12.45;5.85;;;3.80;99.90;;;;;;4948275;28;86319;-88
2021/01/13 10:06:22;;;;;;;12.18;6.68;;;3.40;99.90;;;;;;4945454;28;88083;-87
2021/01/13 10:08:48;;;;;;;13.60;6.75;;;3.80;99.90;;;;;;4933655;28;86870;-87
2021/01/13 10:11:19;;;;;;;12.73;6.63;;;4.00;99.90;;;;;;4931020;28;86848;-87
2021/01/13 10:13:51;;;;;;;9.90;6.13;;;4.30;99.90;;;;;;4951560;28;86567;-88
2021/01/13 10:16:16;;;;;;;10.55;6.32;;;4.30;99.90;;;;;;4956731;28;87274;-88
2021/01/13 10:18:50;;;;;;;9.43;7.13;;;4.20;99.90;;;;;;4947975;28;86698;-89
2021/01/13 10:21:19;;;;;;;12.98;6.32;;;4.60;99.90;;;;;;4950756;28;86141;-90
2021/01/13 10:23:46;;;;;;;11.30;6.18;;;4.70;99.90;;;;;;4932556;28;86923;-87
2021/01/13 10:26:12;;;;;;;7.28;3.90;;;4.80;99.90;;;;;;4936455;28;90322;-90
2021/01/13 10:28:39;;;;;;;7.15;3.90;;;4.80;99.90;;;;;;4961828;28;88064;-90
2021/01/13 10:31:09;;;;;;;7.78;3.80;;;5.10;99.90;;;;;;4952226;28;86239;-89
2021/01/13 10:33:48;;;;;;;8.73;4.82;;;5.10;99.90;;;;;;4944199;28;86226;-87
2021/01/13 10:36:38;;;;;;;6.57;4.90;;;5.50;99.90;;;;;;4959572;28;87556;-88
2021/01/13 10:39:14;;;;;;;8.93;5.45;;;6.30;99.90;;;;;;4964050;28;87921;-89
2021/01/13 10:41:57;;;;;;;6.72;5.00;;;6.10;99.90;;;;;;4943271;28;87134;-91
2021/01/13 10:44:30;;;;;;;8.63;4.72;;;6.40;99.90;;;;;;4930738;28;85549;-88
2021/01/13 10:46:57;;;;;;;7.20;4.88;;;;;;;;;;4937011;28;87074;-88
2021/01/13 10:49:43;;;;;;;6.18;4.70;;;6.60;99.90;;;;;;4942402;28;88964;-88
2021/01/13 10:52:19;;;;;;;6.45;3.92;;;6.50;98.40;;;;;;4937128;28;88132;-89
2021/01/13 10:54:52;;;;;;;7.10;3.60;;;7.00;99.90;;;;;;4937460;28;87330;-89
2021/01/13 10:57:32;;;;;;;5.90;4.38;;;7.20;99.90;;;;;;4952480;28;87099;-88
2021/01/13 11:00:10;;;;;;;5.05;4.00;;;7.20;99.60;;;;;;4930978;28;87792;-88
2021/01/13 11:02:42;;;;;;;4.82;4.30;;;;;;;;;;4934725;28;86488;-90
2021/01/13 11:05:08;;;;;;;6.60;4.90;;;7.00;98.60;;;;;;4950988;28;86543;-87
2021/01/13 11:07:43;;;;;;;7.95;4.97;;;7.20;98.50;;;;;;4922318;28;86818;-87
2021/01/13 11:10:12;;;;;;;6.13;5.00;;;7.20;97.50;;;;;;4942620;28;86488;-89
2021/01/13 11:12:38;;;;;;;7.22;3.85;;;7.20;99.90;;;;;;4940504;28;87573;-90
2021/01/13 11:15:10;;;;;;;5.38;3.67;;;7.00;97.90;;;;;;4934808;28;86323;-88
2021/01/13 11:17:36;;;;;;;4.88;3.72;;;7.00;99.10;;;;;;4935482;28;90316;-89
2021/01/13 11:20:05;;;;;;;5.03;3.58;;;7.10;99.40;;;;;;4931664;28;88603;-87
2021/01/13 11:22:45;;;;;;;7.10;4.93;;;7.10;94.20;;;;;;4931881;28;87662;-87
2021/01/13 11:25:30;;;;;;;4.68;3.08;;;7.10;95.10;;;;;;4927351;28;88025;-89
2021/01/13 11:28:10;;;;;;;5.78;3.30;;;6.70;93.10;;;;;;4923074;28;87866;-89
2021/01/13 11:30:44;;;;;;;6.33;4.10;;;6.70;94.70;;;;;;4931196;28;87430;-88
2021/01/13 11:33:14;;;;;;;6.63;5.45;;;6.60;96.00;;;;;;4932813;28;86808;-88
2021/01/13 11:35:49;;;;;;;5.75;4.60;;;6.40;94.70;;;;;;4926520;28;86054;-87
2021/01/13 11:38:53;;;;;;;6.30;5.53;;;6.20;96.60;;;;;;4928366;28;90194;-88
2021/01/13 11:41:31;;;;;;;7.43;5.18;;;6.80;98.30;;;;;;4924543;28;89039;-90
2021/01/13 11:44:18;;;;;;;4.53;3.42;;;6.80;98.60;;;;;;4925455;28;87690;-87
2021/01/13 11:46:50;;;;;;;6.80;5.30;;;6.70;95.00;;;;;;4920365;28;87774;-87
2021/01/13 11:49:44;;;;;;;5.97;5.38;;;6.70;95.70;;;;;;4919820;28;87407;-87
2021/01/13 11:52:14;;;;;;;5.32;3.58;;;6.70;95.60;;;;;;4906687;28;88820;-87
2021/01/13 11:54:46;;;;;;;5.03;3.63;;;6.90;97.10;;;;;;4935628;28;86936;-87
2021/01/13 11:57:44;;;;;;;6.43;3.75;;;7.30;97.30;;;;;;4933625;28;86893;-89
2021/01/13 12:00:20;;;;;;;6.00;4.15;;;7.70;95.60;;;;;;4930504;28;90318;-86
2021/01/13 12:02:50;;;;;;;6.10;4.95;;;7.50;91.50;;;;;;4927976;28;90623;-87
2021/01/13 12:05:25;;;;;;;6.68;5.07;;;8.00;93.10;;;;;;4929138;28;86223;-86
2021/01/13 12:07:57;;;;;;;7.43;4.85;;;7.90;93.10;;;;;;4926196;28;87267;-86
2021/01/13 12:10:24;;;;;;;5.90;4.53;;;;;;;;;;4925457;28;88263;-86
2021/01/13 12:12:50;;;;;;;5.70;4.70;;;;;;;;;;4929698;28;88133;-86
2021/01/13 12:15:16;;;;;;;5.20;4.68;;;8.40;89.80;;;;;;4931798;28;86349;-87
2021/01/13 12:17:50;;;;;;;7.22;5.70;;;9.00;90.70;;;;;;4931320;28;86330;-87
2021/01/13 12:20:34;;;;;;;8.07;4.20;;;8.80;90.60;;;;;;4930701;28;87650;-88
2021/01/13 12:23:27;;;;;;;5.60;5.00;;;9.00;90.80;;;;;;4916663;28;87400;-89
2021/01/13 12:25:53;;;;;;;6.78;5.00;;;;;;;;;;4931153;28;86191;-86
2021/01/13 12:28:24;;;;;;;6.10;5.35;;;9.70;90.00;;;;;;4927360;28;85590;-87
2021/01/13 12:30:56;;;;;;;;;;;9.80;89.80;;;;;;4936798;28;87276;-88
2021/01/13 12:33:23;;;;;;;5.03;3.92;;;9.80;87.80;;;;;;4951953;28;86748;-87
2021/01/13 12:35:49;;;;;;;6.28;5.68;;;;;;;;;;4945971;28;87159;-88
2021/01/13 12:38:15;;;;;;;5.32;4.82;;;;;;;;;;4944599;28;86250;-88
2021/01/13 12:40:41;;;;;;;5.80;4.38;;;;;;;;;;4940750;28;87933;-87
2021/01/13 12:43:15;;;;;;;6.78;4.78;;;9.60;85.60;;;;;;4948844;28;87025;-88
2021/01/13 12:45:41;;;;;;;5.63;4.55;;;;;;;;;;4948955;28;86741;-87
2021/01/13 12:48:07;;;;;;;8.23;4.75;;;9.70;87.60;;;;;;4960459;28;86217;-87
2021/01/13 12:50:34;;;;;;;6.15;3.80;;;9.60;85.70;;;;;;4959860;28;87278;-88
2021/01/13 12:53:00;;;;;;;5.78;5.20;;;;;;;;;;4937837;28;87369;-88
2021/01/13 12:55:26;;;;;;;7.60;4.18;;;9.30;86.40;;;;;;4960806;28;86960;-89
2021/01/13 12:57:52;;;;;;;6.35;5.07;;;;;;;;;;4952859;28;87111;-86
2021/01/13 13:00:18;;;;;;;8.18;5.05;;;;;;;;;;4945330;28;88772;-88
2021/01/13 13:02:44;;;;;;;5.20;4.70;;;;;;;;;;4937937;28;89804;-88
2021/01/13 13:05:10;;;;;;;6.05;3.95;;;8.80;90.00;;;;;;4959318;28;86447;-88
2021/01/13 13:07:37;;;;;;;6.00;3.65;;;8.90;89.90;;;;;;4939223;28;87299;-87
2021/01/13 13:10:03;;;;;;;5.32;3.20;;;9.10;89.80;;;;;;4925890;28;88726;-87
2021/01/13 13:12:29;;;;;;;3.67;2.75;;;9.20;87.90;;;;;;4955589;28;86991;-88
2021/01/13 13:14:55;;;;;;;2.97;2.75;;;9.20;85.80;;;;;;4956667;28;86190;-87
2021/01/13 13:17:22;;;;;;;2.78;2.47;;;9.10;83.30;;;;;;4962376;28;86553;-88
2021/01/13 13:19:49;;;;;;;4.00;3.60;;;;;;;;;;4960540;28;86718;-88
2021/01/13 13:22:20;;;;;;;4.35;3.83;;;8.60;81.70;;;;;;4945592;28;86989;-87
2021/01/13 13:24:45;;;;;;;;;;;8.60;82.10;;;;;;4962693;28;87136;-87
2021/01/13 13:27:12;;;;;;;3.15;2.40;;;8.40;86.10;;;;;;4955188;28;86868;-87
2021/01/13 13:29:38;;;;;;;4.85;4.45;;;;;;;;;;4956315;28;88079;-87
2021/01/13 13:32:06;;;;;;;4.28;3.97;;;7.90;85.30;;;;;;4956304;28;86908;-86
2021/01/13 13:34:34;;;;;;;4.65;2.70;;;7.60;85.60;;;;;;4955001;28;86153;-87
2021/01/13 13:37:01;;;;;;;5.40;4.10;;;;;;;;;;4946324;28;86303;-86
2021/01/13 13:39:27;;;;;;;3.33;3.10;;;;;;;;;;4949766;28;89818;-88
2021/01/13 13:41:59;;;;;;;4.30;3.90;;;7.00;87.40;;;;;;4963749;28;87123;-87
2021/01/13 13:44:31;;;;;;;3.55;3.25;;;7.00;87.80;;;;;;4961759;28;86213;-86
2021/01/13 13:47:00;;;;;;;;;;;6.80;88.10;;;;;;4966589;28;86909;-86
2021/01/13 13:49:28;;;;;;;3.60;3.28;;;6.60;90.30;;;;;;4973730;28;88279;-86
2021/01/13 13:51:54;;;;;;;2.90;2.60;;;6.60;89.60;;;;;;4964046;28;87615;-88
2021/01/13 13:54:20;;;;;;;3.78;3.47;;;;;;;;;;4959939;28;86864;-88
2021/01/13 13:56:55;;;;;;;4.78;4.07;;;6.40;90.90;;;;;;4958070;28;86540;-88
2021/01/13 13:59:22;;;;;;;4.63;4.07;;;;;;;;;;4955620;28;87679;-87
2021/01/13 14:01:48;;;;;;;4.63;4.18;;;6.70;91.90;;;;;;4941021;28;89645;-88
2021/01/13 14:04:14;;;;;;;4.25;3.95;;;;;;;;;;4955284;28;86521;-87
2021/01/13 14:06:40;;;;;;;2.72;2.50;;;6.50;92.40;;;;;;4939365;28;87272;-87
2021/01/13 14:09:06;;;;;;;3.60;3.30;;;;;;;;;;4960951;28;87342;-88
2021/01/13 14:11:39;;;;;;;4.55;4.15;;;6.70;92.90;;;;;;4939320;28;89513;-87
2021/01/13 14:14:05;;;;;;;3.60;3.30;;;;;;;;;;4950317;28;87308;-88
2021/01/13 14:16:32;;;;;;;4.45;3.53;;;;;;;;;;4955166;28;86926;-87
2021/01/13 14:18:58;;;;;;;4.93;4.00;;;;;;;;;;4952043;28;87161;-87
2021/01/13 14:21:24;;;;;;;5.38;4.88;;;;;;;;;;4956087;28;87970;-86
2021/01/13 14:23:49;;;;;;;5.20;4.03;;;6.40;91.40;;;;;;4937899;28;87038;-87
2021/01/13 14:26:22;;;;;;;6.55;5.95;;;6.40;92.20;;;;;;4955711;28;86496;-85
2021/01/13 14:28:48;;;;;;;4.25;3.92;;;6.40;92.50;;;;;;4951718;28;87609;-87
2021/01/13 14:31:17;;;;;;;3.95;3.63;;;6.40;93.70;;;;;;4941691;28;87617;-87
2021/01/13 14:33:43;;;;;;;4.30;3.63;;;;;;;;;;4955287;28;86572;-87
2021/01/13 14:36:15;;;;;;;3.65;3.30;;;6.20;92.60;;;;;;4953494;28;88026;-88
2021/01/13 14:38:41;;;;;;;5.50;3.88;;;;;;;;;;4931635;28;89773;-88
2021/01/13 14:41:07;;;;;;;3.72;3.53;;;;;;;;;;4949902;28;89203;-85
2021/01/13 14:43:34;;;;;;;3.88;3.58;;;6.40;92.30;;;;;;4937572;28;86590;-86
2021/01/13 14:46:01;;;;;;;2.60;2.40;;;6.30;92.50;;;;;;4952528;28;87109;-87
2021/01/13 14:48:29;;;;;;;3.33;2.75;;;6.40;92.80;;;;;;4952041;28;87713;-87
2021/01/13 14:50:55;;;;;;;4.10;3.70;;;;;;;;;;4955153;28;87007;-87
2021/01/13 14:53:21;;;;;;;3.33;3.03;;;6.40;92.80;;;;;;4954490;28;86616;-87
2021/01/13 14:55:48;;;;;;;4.32;3.92;;;6.10;93.90;;;;;;4952823;28;85454;-88
2021/01/13 14:58:14;;;;;;;8.48;4.65;;;6.20;94.00;;;;;;4949836;28;87432;-87
2021/01/13 15:00:40;;;;;;;26.23;16.13;;;;;;;;;;4949259;28;87874;-86
2021/01/13 15:03:06;;;;;;;6.13;3.80;;;6.10;94.80;;;;;;4948111;28;87828;-87
2021/01/13 15:05:37;;;;;;;14.27;10.55;;;6.00;96.30;;;;;;4946407;28;86782;-89
2021/01/13 15:08:05;;;;;;;8.70;7.10;;;6.00;96.60;;;;;;4939124;28;92039;-87
2021/01/13 15:10:30;;;;;;;5.55;3.03;;;6.00;96.70;;;;;;4953331;28;87008;-88
2021/01/13 15:12:56;;;;;;;12.88;6.57;;;;;;;;;;4949152;28;86955;-88
2021/01/13 15:15:31;;;;;;;6.57;4.15;;;5.80;95.90;;;;;;4927936;28;87119;-87
2021/01/13 15:17:57;;;;;;;8.25;7.40;;;;;;;;;;4939836;28;86936;-90
2021/01/13 15:20:23;;;;;;;10.55;7.57;;;;;;;;;;4941462;28;86696;-88
2021/01/13 15:22:49;;;;;;;22.60;13.15;;;;;;;;;;4943532;28;87000;-88
2021/01/13 15:25:16;;;;;;;27.80;14.35;;;;;;;;;;4944089;28;87551;-86
2021/01/13 15:27:43;;;;;;;17.95;9.82;;;;;;;;;;4941052;28;88247;-88
2021/01/13 15:30:09;;;;;;;118.32;49.22;;;5.20;99.90;;;;;;4927993;28;90922;-87
2021/01/13 15:32:37;;;;;;;19.13;11.00;;;5.10;99.90;;;;;;4946280;28;86837;-88
2021/01/13 15:35:09;;;;;;;12.40;7.25;;;5.00;99.90;;;;;;4930243;28;87133;-88
2021/01/13 15:37:35;;;;;;;16.40;8.63;;;5.00;99.90;;;;;;4948202;28;89961;-87
2021/01/13 15:40:01;;;;;;;17.55;10.50;;;;;;;;;;4930866;28;89015;-88
2021/01/13 15:42:34;;;;;;;14.98;8.27;;;5.00;99.90;;;;;;4941396;28;86968;-88
2021/01/13 15:45:00;;;;;;;14.55;8.85;;;4.80;99.90;;;;;;4949786;28;86246;-88
2021/01/13 15:47:39;;;;;;;10.35;7.25;;;4.90;99.90;;;;;;4955995;28;86955;-87
2021/01/13 15:50:06;;;;;;;7.80;6.45;;;4.50;99.90;;;;;;4945874;28;88492;-87
2021/01/13 15:52:47;;;;;;;7.10;5.22;;;4.60;99.90;;;;;;4935113;28;88020;-88
2021/01/13 15:55:13;;;;;;;12.25;8.38;;;4.00;99.90;;;;;;4939251;28;87290;-88
2021/01/13 15:57:56;;;;;;;7.22;4.47;;;4.50;99.90;;;;;;4949095;28;87955;-88
2021/01/13 16:00:24;;;;;;;6.20;5.40;;;4.50;99.90;;;;;;4949190;28;87508;-89
2021/01/13 16:02:51;;;;;;;5.30;4.68;;;;;;;;;;4931614;28;86806;-89
2021/01/13 16:05:19;;;;;;;9.18;6.30;;;4.40;99.90;;;;;;4950140;28;86463;-87
2021/01/13 16:07:46;;;;;;;11.80;8.05;;;4.60;99.90;;;;;;4924820;28;87572;-86
2021/01/13 16:10:13;;;;;;;7.43;5.97;;;4.20;99.90;;;;;;4948922;28;86764;-87
2021/01/13 16:12:44;;;;;;;10.75;7.78;;;4.10;99.90;;;;;;4937116;28;86484;-87
2021/01/13 16:15:11;;;;;;;7.87;5.10;;;4.30;99.90;;;;;;4950897;28;86905;-87
2021/01/13 16:17:46;;;;;;;8.70;6.63;;;4.20;99.90;;;;;;4950474;28;87739;-87
2021/01/13 16:20:12;;;;;;;7.47;6.47;;;4.30;99.90;;;;;;4947361;28;89023;-87
2021/01/13 16:22:39;;;;;;;8.05;6.43;;;4.20;99.90;;;;;;4927467;28;87491;-87
2021/01/13 16:25:08;;;;;;;7.28;6.32;;;4.20;99.90;;;;;;4948578;28;87153;-87
2021/01/13 16:27:35;;;;;;;11.32;7.15;;;4.20;99.90;;;;;;4949681;28;88014;-87
2021/01/13 16:30:05;;;;;;;8.55;6.47;;;4.10;99.90;;;;;;4952106;28;87046;-85
2021/01/13 16:32:41;;;;;;;10.80;8.10;;;4.30;99.90;;;;;;4952396;28;87058;-87
2021/01/13 16:35:08;;;;;;;7.03;6.13;;;3.90;99.90;;;;;;4932021;28;85851;-88
2021/01/13 16:37:34;;;;;;;8.88;4.85;;;4.10;99.90;;;;;;4942563;28;87698;-87
2021/01/13 16:40:00;;;;;;;9.05;5.20;;;4.10;99.90;;;;;;4950428;28;86904;-87
2021/01/13 16:42:27;;;;;;;38.92;17.08;;;4.20;99.90;;;;;;4931961;28;87743;-86
2021/01/13 16:44:58;;;;;;;35.03;18.45;;;4.30;99.90;;;;;;4946701;28;86707;-87
2021/01/13 16:47:25;;;;;;;23.02;13.65;;;4.00;99.90;;;;;;4947215;28;86906;-88
2021/01/13 16:49:52;;;;;;;20.50;9.77;;;4.10;99.90;;;;;;4941574;28;87757;-87
2021/01/13 16:52:25;;;;;;;22.48;11.15;;;4.10;99.90;;;;;;4946276;28;86247;-88
2021/01/13 16:54:57;;;;;;;31.58;15.68;;;4.00;99.90;;;;;;4924445;28;87066;-88
2021/01/13 16:57:47;;;;;;;27.85;14.80;;;3.80;99.90;;;;;;4928017;28;87580;-88
2021/01/13 17:00:16;;;;;;;11.45;7.35;;;3.90;99.90;;;;;;4950590;28;87677;-88
2021/01/13 17:02:52;;;;;;;9.85;5.75;;;3.80;99.90;;;;;;4950122;28;86943;-87
2021/01/13 17:05:18;;;;;;;10.88;6.20;;;3.80;99.90;;;;;;4949439;28;86682;-86
2021/01/13 17:07:45;;;;;;;11.80;7.07;;;3.80;99.90;;;;;;4947636;28;88962;-87
2021/01/13 17:10:14;;;;;;;7.93;6.78;;;3.80;99.90;;;;;;4949411;28;88372;-88
2021/01/13 17:12:43;;;;;;;8.82;5.55;;;3.90;99.90;;;;;;4948260;28;86833;-88
2021/01/13 17:15:13;;;;;;;6.35;4.95;;;4.00;99.90;;;;;;4922726;28;87200;-87
2021/01/13 17:17:42;;;;;;;7.15;5.65;;;3.90;99.90;;;;;;4945170;28;90004;-87